Logo AVAMET
Benvolgut visitant, si us plau, ingressa Recuperar contrasenya

Inforatge Alberic Urb. Sant Cristòfol

Dades diàries. Acumulats / Últims 30 dies disponibles

Data Temperatura (°C) Humitat rel. (%) Pressió rel. (hPa) Vent (km/h) Precipitació
Mínima Mitjana Màxima Amplitud
tèrmica
Mínima Mitjana Màxima Mínima Mitjana Màxima Predom. Mitjana Ràfega
màxima
Total
(mm)
Índex-n
Mínima Mitjana Màxima Mínima Mitjana Màxima n
0 a 1
P0 max
mm 5'
Dades mensuals acumulades fins l'últim dia disponible
12/2019 7,4 10,3 15,3 12,6 10,9 15,7 18,8 11,4 37 76 98 1.005 1.018 1.027   8,8 64,4 99,4
Dades anuals acumulades fins l'últim dia disponible
2019 2,0 14,5 25,6 18,7 10,9 23,9 41,0 39,0 11 64 98 993 1.017 1.036   5,7 75,6 451,6
Últims 30 dies disponibles
13-12-2019 15,3     17,3     18,8 3,5 56 62 66 1.008 1.011 1.016 W 21,2 64,4 0,0
12-12-2019 9,2     11,9     15,4 6,2 57 61 68 1.010 1.017 1.022 W 19,2 62,8 0,0
11-12-2019 10,3     12,9     17,4 7,1 37 55 63 1.017 1.020 1.023 W 9,7 43,5 0,0
10-12-2019 9,8     13,6     18,1 8,3 41 52 63 1.022 1.024 1.026 W 7,1 40,2 0,0
09-12-2019 12,2     14,6     18,1 5,9 42 61 77 1.021 1.024 1.027 W 14,6 43,5 0,0
08-12-2019 9,4     13,2     18,1 8,7 56 71 87 1.020 1.022 1.025 W 6,3 48,3 0,0
07-12-2019 9,3     12,7     17,3 8,0 64 86 97 1.022 1.023 1.024 SW 1,8 14,5 0,0
06-12-2019 10,7     12,1     14,2 3,5 87 93 96 1.022 1.023 1.025 N 0,8 11,3 0,4
05-12-2019 9,7     10,8     11,9 2,2 94 97 98 1.009 1.016 1.022 NNE 4,3 25,7 23,8 0,42 2,20
04-12-2019 9,4     11,1     13,4 4,0 74 91 98 1.005 1.007 1.011 NNE 8,7 53,1 19,2 0,28 0,80
03-12-2019 7,4     8,9     10,9 3,5 97 98 98 1.011 1.015 1.018 NNE 7,4 29,0 16,0 0,48 0,70
02-12-2019 9,6     10,7     12,6 3,0 80 92 97 1.012 1.015 1.018 NNE 8,5 38,6 40,0 0,37 1,20
01-12-2019 12,1     14,5     17,6 5,5 44 66 87 1.011 1.013 1.015 W 4,3 29,0 0,0
30-11-2019 13,4     17,3     23,4 10,0 50 68 80 1.015 1.019 1.022 SO 4,1 25,7 0,0
29-11-2019 14,6     17,2     20,1 5,5 59 65 73 1.017 1.019 1.022 W 6,9 33,8 0,0
28-11-2019 13,2     15,0     17,1 3,9 60 64 69 1.014 1.017 1.019 W 5,8 38,6 0,0
27-11-2019 15,4     17,8     20,2 4,8 44 58 72 1.009 1.012 1.014 W 10,1 46,7 0,0
26-11-2019 13,3     17,2     20,8 7,5 55 69 80 1.010 1.013 1.016 W 4,3 35,4 0,0
25-11-2019 12,7     16,1     19,3 6,6 60 68 77 1.013 1.015 1.016 W 7,1 41,8 0,0
24-11-2019 10,2     13,1     16,8 6,6 46 56 64 1.008 1.012 1.015 W 13,4 49,9 0,0
23-11-2019 9,9     13,9     15,8 5,9 44 57 78 994 999 1.008 W 20,0 75,6 0,2
22-11-2019 10,3     13,6     17,3 7,0 63 77 86 995 1.002 1.009 SW 5,3 40,2 0,6
21-11-2019 8,6     12,0     15,7 7,1 64 75 85 1.008 1.009 1.011 SW 0,6 16,1 0,0
20-11-2019 7,3     11,3     16,5 9,2 43 63 85 1.009 1.012 1.016 SW 1,1 16,1 0,8
19-11-2019 5,8     10,3     15,6 9,8 39 57 71 1.015 1.016 1.018 WSW 4,5 27,4 0,0
18-11-2019 8,4     11,2     15,2 6,8 48 66 88 1.007 1.012 1.017 W 2,9 29,0 0,6
17-11-2019 5,7     10,9     15,6 9,9 47 61 88 1.010 1.013 1.016 W 8,9 45,1 1,6 0,20
16-11-2019 6,5     10,6     15,6 9,1 29 55 73 1.008 1.012 1.016 W 5,3 32,2 0,0
15-11-2019 8,6     11,1     14,7 6,1 46 59 68 1.000 1.004 1.007 W 9,5 43,5 0,0
14-11-2019 9,8     13,6     16,5 6,7 48 60 72 1.000 1.003 1.010 W 11,1 57,9 0,0
Últims 13 mesos disponibles
11/2019 5,7 11,6 20,4 14,9 14,7 18,7 26,4 20,7 48 60 77 999 1.012 1.019 W 8,2 75,6 5,8
10/2019 10,6 16,0 20,3 20,0 15,8 25,1 33,4 22,8 41 69 89 1.008 1.017 1.022 W 3,4 48,3 30,8
09/2019 14,2 19,7 23,3 23,3 20,8 27,9 34,5 20,3 37 74 90 1.011 1.018 1.025 SSE 4,9 46,7 109,4
08/2019 17,3 21,8 25,6 26,4 27,3 32,4 41,0 23,7 41 69 82 1.012 1.017 1.021 SE 5,2 40,7 9,4
07/2019 20,5 22,2 24,6 26,9 28,1 32,6 37,6 17,1 44 66 81 1.007 1.015 1.022 SE 6,0 48,3 2,6
06/2019 12,9 17,7 22,6 23,1 22,1 29,0 38,2 25,3 35 61 81 1.010 1.016 1.023 ESE 5,6 53,7 0,0
05/2019 9,6 14,2 20,1 18,9 17,8 24,7 31,6 22,0 48 65 85 1.006 1.016 1.025 ESE 5,1 50,0 11,4
04/2019 8,3 11,3 14,8 14,9 13,6 19,8 28,8 20,5 38 67 95 1.000 1.014 1.026 SO 7,2 55,6 131,8
03/2019 6,9 10,1 15,6 14,9 12,0 20,6 28,6 21,7 27 56 92 1.012 1.023 1.030 SE 4,6 53,7 50,6
02/2019 4,3 8,1 12,7 12,5 12,8 18,3 26,1 21,8 33 60 83 996 1.025 1.034 S 4,9 69,3 0,2
01/2019 2,0 7,5 12,4 11,5 11,9 16,4 21,4 19,4 38 55 73 1.003 1.019 1.031 SO 6,2 70,9 0,2
12/2018 5,2 9,6 14,1 13,5 13,2 18,4 24,5 19,3 44 65 84 1.009 1.025 1.031 OSO 4,8 63,0 8,6
11/2018 7,3 11,5 15,4 14,2 13,2 17,7 22,9 15,6 46 72 97 1.002 1.016 1.024 OSO 5,3 64,8 153,2
Tots els anys disponibles
Temperatura (°C)
Humitat relativa (%)
Velocitat del vent i ràfega màxima (km/h)
Direcció del vent (°)
Pressió (hPa)
Precipitació (mm)
Nota sobre les dades: s'avisa a l'usuari de la provisionalitat i no oficialitat d'aquestes dades
Logo AVAMET blanc
Web allotjada a Sollutia
Llicència de Creative CommonsLa web d'AVAMET i els seus continguts estan subjectes a una llicència de
Reconeixement - No Comercial - Compartir igual
Últimes estacions: Aielo de Malferit - Centre (Soci), Faura (Inforatge), Benifairó de les Valls (Inforatge), Xàbia - Les Valls (Soci) - - -